sensor_id;sensor_type;location;lat;lon;timestamp;P1;durP1;ratioP1;P2;durP2;ratioP2
70049;SDS011;57391;51.306;22.680;2023-05-14T00:01:21;42.70;;;17.40;;
70049;SDS011;57391;51.306;22.680;2023-05-14T00:03:47;36.70;;;16.90;;
70049;SDS011;57391;51.306;22.680;2023-05-14T00:06:15;33.50;;;17.00;;
70049;SDS011;57391;51.306;22.680;2023-05-14T00:08:42;38.80;;;16.90;;
70049;SDS011;57391;51.306;22.680;2023-05-14T00:11:09;32.80;;;15.70;;
70049;SDS011;57391;51.306;22.680;2023-05-14T00:13:36;31.30;;;16.10;;
70049;SDS011;57391;51.306;22.680;2023-05-14T00:16:05;35.00;;;17.00;;
70049;SDS011;57391;51.306;22.680;2023-05-14T00:18:32;32.90;;;17.80;;
70049;SDS011;57391;51.306;22.680;2023-05-14T00:21:00;32.80;;;17.00;;
70049;SDS011;57391;51.306;22.680;2023-05-14T00:23:27;36.60;;;17.70;;
70049;SDS011;57391;51.306;22.680;2023-05-14T00:25:54;31.40;;;16.80;;
70049;SDS011;57391;51.306;22.680;2023-05-14T00:28:22;36.30;;;17.90;;
70049;SDS011;57391;51.306;22.680;2023-05-14T00:30:49;33.90;;;17.70;;
70049;SDS011;57391;51.306;22.680;2023-05-14T00:33:17;33.80;;;17.80;;
70049;SDS011;57391;51.306;22.680;2023-05-14T00:35:44;34.40;;;17.30;;
70049;SDS011;57391;51.306;22.680;2023-05-14T00:38:12;32.80;;;17.30;;
70049;SDS011;57391;51.306;22.680;2023-05-14T00:40:43;32.30;;;15.50;;
70049;SDS011;57391;51.306;22.680;2023-05-14T00:43:11;31.50;;;16.80;;
70049;SDS011;57391;51.306;22.680;2023-05-14T00:45:38;31.20;;;16.50;;
70049;SDS011;57391;51.306;22.680;2023-05-14T00:48:06;28.10;;;15.60;;
70049;SDS011;57391;51.306;22.680;2023-05-14T00:50:33;26.00;;;14.50;;
70049;SDS011;57391;51.306;22.680;2023-05-14T00:53:00;27.30;;;14.30;;
70049;SDS011;57391;51.306;22.680;2023-05-14T00:55:28;31.80;;;15.20;;
70049;SDS011;57391;51.306;22.680;2023-05-14T00:57:56;29.90;;;15.90;;
70049;SDS011;57391;51.306;22.680;2023-05-14T01:00:25;30.30;;;15.40;;
70049;SDS011;57391;51.306;22.680;2023-05-14T01:02:52;27.90;;;14.70;;
70049;SDS011;57391;51.306;22.680;2023-05-14T01:05:20;28.00;;;14.80;;
70049;SDS011;57391;51.306;22.680;2023-05-14T01:08:01;29.00;;;15.30;;
70049;SDS011;57391;51.306;22.680;2023-05-14T01:10:49;30.70;;;16.20;;
70049;SDS011;57391;51.306;22.680;2023-05-14T01:16:28;28.70;;;15.70;;
70049;SDS011;57391;51.306;22.680;2023-05-14T01:19:00;31.00;;;15.30;;
70049;SDS011;57391;51.306;22.680;2023-05-14T01:21:35;27.30;;;15.20;;
70049;SDS011;57391;51.306;22.680;2023-05-14T01:24:04;31.00;;;15.50;;
70049;SDS011;57391;51.306;22.680;2023-05-14T01:26:32;26.00;;;14.90;;
70049;SDS011;57391;51.306;22.680;2023-05-14T01:31:43;27.00;;;14.40;;
70049;SDS011;57391;51.306;22.680;2023-05-14T01:34:13;26.80;;;13.90;;
70049;SDS011;57391;51.306;22.680;2023-05-14T01:36:42;27.00;;;13.60;;
70049;SDS011;57391;51.306;22.680;2023-05-14T01:39:10;27.30;;;14.40;;
70049;SDS011;57391;51.306;22.680;2023-05-14T01:41:39;29.40;;;14.60;;
70049;SDS011;57391;51.306;22.680;2023-05-14T01:44:08;26.90;;;14.30;;
70049;SDS011;57391;51.306;22.680;2023-05-14T01:46:35;33.50;;;14.50;;
70049;SDS011;57391;51.306;22.680;2023-05-14T01:49:02;26.00;;;15.20;;
70049;SDS011;57391;51.306;22.680;2023-05-14T01:51:29;28.70;;;15.10;;
70049;SDS011;57391;51.306;22.680;2023-05-14T01:53:56;31.20;;;14.90;;
70049;SDS011;57391;51.306;22.680;2023-05-14T01:56:23;25.10;;;13.80;;
70049;SDS011;57391;51.306;22.680;2023-05-14T01:58:51;24.20;;;13.90;;
70049;SDS011;57391;51.306;22.680;2023-05-14T02:01:18;25.50;;;14.90;;
70049;SDS011;57391;51.306;22.680;2023-05-14T02:03:47;25.30;;;14.00;;
70049;SDS011;57391;51.306;22.680;2023-05-14T02:06:14;27.00;;;14.60;;
70049;SDS011;57391;51.306;22.680;2023-05-14T02:08:41;27.60;;;14.70;;
70049;SDS011;57391;51.306;22.680;2023-05-14T02:11:08;26.90;;;15.30;;
70049;SDS011;57391;51.306;22.680;2023-05-14T02:13:35;30.00;;;14.70;;
70049;SDS011;57391;51.306;22.680;2023-05-14T02:16:03;29.80;;;15.70;;
70049;SDS011;57391;51.306;22.680;2023-05-14T02:18:30;27.00;;;15.40;;
70049;SDS011;57391;51.306;22.680;2023-05-14T02:20:57;26.90;;;15.20;;
70049;SDS011;57391;51.306;22.680;2023-05-14T02:23:24;29.50;;;15.40;;
70049;SDS011;57391;51.306;22.680;2023-05-14T02:25:51;25.10;;;14.10;;
70049;SDS011;57391;51.306;22.680;2023-05-14T02:28:18;32.40;;;15.10;;
70049;SDS011;57391;51.306;22.680;2023-05-14T02:30:45;25.70;;;13.80;;
70049;SDS011;57391;51.306;22.680;2023-05-14T02:33:13;26.20;;;14.30;;
70049;SDS011;57391;51.306;22.680;2023-05-14T02:35:40;26.80;;;13.70;;
70049;SDS011;57391;51.306;22.680;2023-05-14T02:38:07;25.90;;;14.10;;
70049;SDS011;57391;51.306;22.680;2023-05-14T02:40:35;28.80;;;15.00;;
70049;SDS011;57391;51.306;22.680;2023-05-14T02:43:03;26.00;;;14.10;;
70049;SDS011;57391;51.306;22.680;2023-05-14T02:45:30;24.20;;;13.80;;
70049;SDS011;57391;51.306;22.680;2023-05-14T02:47:57;23.70;;;13.50;;
70049;SDS011;57391;51.306;22.680;2023-05-14T02:50:24;24.10;;;14.20;;
70049;SDS011;57391;51.306;22.680;2023-05-14T02:52:51;26.40;;;13.60;;
70049;SDS011;57391;51.306;22.680;2023-05-14T02:55:18;26.80;;;14.40;;
70049;SDS011;57391;51.306;22.680;2023-05-14T02:57:45;26.30;;;13.90;;
70049;SDS011;57391;51.306;22.680;2023-05-14T03:00:12;27.90;;;13.30;;
70049;SDS011;57391;51.306;22.680;2023-05-14T03:02:40;28.10;;;13.60;;
70049;SDS011;57391;51.306;22.680;2023-05-14T03:05:09;25.00;;;14.00;;
70049;SDS011;57391;51.306;22.680;2023-05-14T03:07:36;27.90;;;14.90;;
70049;SDS011;57391;51.306;22.680;2023-05-14T03:10:04;26.80;;;13.90;;
70049;SDS011;57391;51.306;22.680;2023-05-14T03:12:32;24.60;;;13.20;;
70049;SDS011;57391;51.306;22.680;2023-05-14T03:14:59;25.80;;;13.20;;
70049;SDS011;57391;51.306;22.680;2023-05-14T03:17:26;23.70;;;13.20;;
70049;SDS011;57391;51.306;22.680;2023-05-14T03:19:53;27.60;;;13.70;;
70049;SDS011;57391;51.306;22.680;2023-05-14T03:22:20;25.10;;;13.60;;
70049;SDS011;57391;51.306;22.680;2023-05-14T03:24:47;19.90;;;13.10;;
70049;SDS011;57391;51.306;22.680;2023-05-14T03:27:15;23.70;;;13.50;;
70049;SDS011;57391;51.306;22.680;2023-05-14T03:29:42;24.50;;;12.90;;
70049;SDS011;57391;51.306;22.680;2023-05-14T03:32:09;23.90;;;12.00;;
70049;SDS011;57391;51.306;22.680;2023-05-14T03:34:36;22.70;;;12.70;;
70049;SDS011;57391;51.306;22.680;2023-05-14T03:37:03;22.80;;;12.90;;
70049;SDS011;57391;51.306;22.680;2023-05-14T03:39:31;23.90;;;12.50;;
70049;SDS011;57391;51.306;22.680;2023-05-14T03:41:57;23.20;;;12.40;;
70049;SDS011;57391;51.306;22.680;2023-05-14T03:44:25;23.10;;;12.70;;
70049;SDS011;57391;51.306;22.680;2023-05-14T03:46:52;25.30;;;13.40;;
70049;SDS011;57391;51.306;22.680;2023-05-14T03:49:19;26.10;;;13.70;;
70049;SDS011;57391;51.306;22.680;2023-05-14T03:51:47;24.90;;;13.00;;
70049;SDS011;57391;51.306;22.680;2023-05-14T03:54:13;22.30;;;12.10;;
70049;SDS011;57391;51.306;22.680;2023-05-14T03:56:41;21.40;;;12.70;;
70049;SDS011;57391;51.306;22.680;2023-05-14T03:59:08;23.30;;;13.20;;
70049;SDS011;57391;51.306;22.680;2023-05-14T04:01:35;23.10;;;12.40;;
70049;SDS011;57391;51.306;22.680;2023-05-14T04:04:02;25.00;;;13.00;;
70049;SDS011;57391;51.306;22.680;2023-05-14T04:06:29;19.90;;;12.70;;
70049;SDS011;57391;51.306;22.680;2023-05-14T04:08:57;21.00;;;12.30;;
70049;SDS011;57391;51.306;22.680;2023-05-14T04:11:24;21.80;;;12.50;;
70049;SDS011;57391;51.306;22.680;2023-05-14T04:13:51;22.70;;;12.60;;
70049;SDS011;57391;51.306;22.680;2023-05-14T04:16:18;23.50;;;12.50;;
70049;SDS011;57391;51.306;22.680;2023-05-14T04:18:45;22.80;;;12.70;;
70049;SDS011;57391;51.306;22.680;2023-05-14T04:21:12;19.40;;;12.50;;
70049;SDS011;57391;51.306;22.680;2023-05-14T04:23:39;24.50;;;13.30;;
70049;SDS011;57391;51.306;22.680;2023-05-14T04:26:06;22.70;;;13.10;;
70049;SDS011;57391;51.306;22.680;2023-05-14T04:28:33;20.70;;;12.70;;
70049;SDS011;57391;51.306;22.680;2023-05-14T04:31:00;19.70;;;12.00;;
70049;SDS011;57391;51.306;22.680;2023-05-14T04:33:27;20.00;;;12.20;;
70049;SDS011;57391;51.306;22.680;2023-05-14T04:35:55;18.40;;;11.80;;
70049;SDS011;57391;51.306;22.680;2023-05-14T04:38:22;19.50;;;11.90;;
70049;SDS011;57391;51.306;22.680;2023-05-14T04:40:49;19.10;;;12.40;;
70049;SDS011;57391;51.306;22.680;2023-05-14T04:43:16;20.30;;;12.80;;
70049;SDS011;57391;51.306;22.680;2023-05-14T04:45:43;19.50;;;12.30;;
70049;SDS011;57391;51.306;22.680;2023-05-14T04:48:11;18.40;;;11.00;;
70049;SDS011;57391;51.306;22.680;2023-05-14T04:50:38;16.10;;;11.10;;
70049;SDS011;57391;51.306;22.680;2023-05-14T04:53:05;16.80;;;10.70;;
70049;SDS011;57391;51.306;22.680;2023-05-14T04:55:32;18.10;;;10.90;;
70049;SDS011;57391;51.306;22.680;2023-05-14T04:57:59;17.50;;;10.80;;
70049;SDS011;57391;51.306;22.680;2023-05-14T05:00:27;16.70;;;9.90;;
70049;SDS011;57391;51.306;22.680;2023-05-14T05:02:54;16.70;;;10.50;;
70049;SDS011;57391;51.306;22.680;2023-05-14T05:05:23;17.00;;;10.10;;
70049;SDS011;57391;51.306;22.680;2023-05-14T05:07:50;13.00;;;8.30;;
70049;SDS011;57391;51.306;22.680;2023-05-14T05:10:17;17.30;;;8.80;;
70049;SDS011;57391;51.306;22.680;2023-05-14T05:12:44;13.00;;;8.20;;
70049;SDS011;57391;51.306;22.680;2023-05-14T05:15:11;12.40;;;7.70;;
70049;SDS011;57391;51.306;22.680;2023-05-14T05:17:38;13.20;;;7.50;;
70049;SDS011;57391;51.306;22.680;2023-05-14T05:20:05;10.40;;;6.50;;
70049;SDS011;57391;51.306;22.680;2023-05-14T05:22:35;12.10;;;7.30;;
70049;SDS011;57391;51.306;22.680;2023-05-14T05:25:03;14.00;;;7.40;;
70049;SDS011;57391;51.306;22.680;2023-05-14T05:27:33;11.50;;;7.00;;
70049;SDS011;57391;51.306;22.680;2023-05-14T05:30:01;12.30;;;6.80;;
70049;SDS011;57391;51.306;22.680;2023-05-14T05:32:29;12.80;;;6.90;;
70049;SDS011;57391;51.306;22.680;2023-05-14T05:34:57;14.40;;;7.30;;
70049;SDS011;57391;51.306;22.680;2023-05-14T05:37:24;12.40;;;6.50;;
70049;SDS011;57391;51.306;22.680;2023-05-14T05:39:51;13.30;;;7.00;;
70049;SDS011;57391;51.306;22.680;2023-05-14T05:42:19;11.70;;;7.10;;
70049;SDS011;57391;51.306;22.680;2023-05-14T05:44:46;12.40;;;6.50;;
70049;SDS011;57391;51.306;22.680;2023-05-14T05:47:14;9.50;;;5.80;;
70049;SDS011;57391;51.306;22.680;2023-05-14T05:49:41;9.90;;;5.90;;
70049;SDS011;57391;51.306;22.680;2023-05-14T05:52:08;12.50;;;6.10;;
70049;SDS011;57391;51.306;22.680;2023-05-14T05:54:36;9.70;;;6.20;;
70049;SDS011;57391;51.306;22.680;2023-05-14T05:57:05;11.20;;;6.40;;
70049;SDS011;57391;51.306;22.680;2023-05-14T05:59:32;10.10;;;5.50;;
70049;SDS011;57391;51.306;22.680;2023-05-14T06:01:59;11.00;;;6.10;;
70049;SDS011;57391;51.306;22.680;2023-05-14T06:04:26;10.50;;;6.30;;
70049;SDS011;57391;51.306;22.680;2023-05-14T06:06:53;11.10;;;5.60;;
70049;SDS011;57391;51.306;22.680;2023-05-14T06:09:20;10.20;;;5.90;;
70049;SDS011;57391;51.306;22.680;2023-05-14T06:11:47;8.90;;;5.30;;
70049;SDS011;57391;51.306;22.680;2023-05-14T06:14:15;9.30;;;5.80;;
70049;SDS011;57391;51.306;22.680;2023-05-14T06:16:41;11.50;;;5.50;;
70049;SDS011;57391;51.306;22.680;2023-05-14T06:19:08;9.90;;;6.30;;
70049;SDS011;57391;51.306;22.680;2023-05-14T06:21:36;9.80;;;6.40;;
70049;SDS011;57391;51.306;22.680;2023-05-14T06:24:04;10.80;;;6.10;;
70049;SDS011;57391;51.306;22.680;2023-05-14T06:26:31;13.80;;;6.40;;
70049;SDS011;57391;51.306;22.680;2023-05-14T06:28:58;12.50;;;6.70;;
70049;SDS011;57391;51.306;22.680;2023-05-14T06:31:25;12.90;;;6.10;;
70049;SDS011;57391;51.306;22.680;2023-05-14T06:33:52;11.70;;;5.80;;
70049;SDS011;57391;51.306;22.680;2023-05-14T06:36:19;11.10;;;5.80;;
70049;SDS011;57391;51.306;22.680;2023-05-14T06:38:47;10.70;;;5.70;;
70049;SDS011;57391;51.306;22.680;2023-05-14T06:41:15;9.00;;;5.10;;
70049;SDS011;57391;51.306;22.680;2023-05-14T06:43:42;8.60;;;4.80;;
70049;SDS011;57391;51.306;22.680;2023-05-14T06:46:09;9.20;;;5.10;;
70049;SDS011;57391;51.306;22.680;2023-05-14T06:48:36;8.80;;;4.80;;
70049;SDS011;57391;51.306;22.680;2023-05-14T06:51:03;8.30;;;4.40;;
70049;SDS011;57391;51.306;22.680;2023-05-14T06:53:30;8.10;;;4.60;;
70049;SDS011;57391;51.306;22.680;2023-05-14T06:55:58;8.40;;;4.50;;
70049;SDS011;57391;51.306;22.680;2023-05-14T06:58:25;10.30;;;4.40;;
70049;SDS011;57391;51.306;22.680;2023-05-14T07:00:52;9.20;;;4.80;;
70049;SDS011;57391;51.306;22.680;2023-05-14T07:03:19;9.00;;;4.50;;
70049;SDS011;57391;51.306;22.680;2023-05-14T07:05:48;8.90;;;4.90;;
70049;SDS011;57391;51.306;22.680;2023-05-14T07:08:14;8.20;;;4.50;;
70049;SDS011;57391;51.306;22.680;2023-05-14T07:10:42;6.20;;;3.90;;
70049;SDS011;57391;51.306;22.680;2023-05-14T07:13:08;8.00;;;4.20;;
70049;SDS011;57391;51.306;22.680;2023-05-14T07:15:36;8.00;;;3.50;;
70049;SDS011;57391;51.306;22.680;2023-05-14T07:18:03;6.10;;;3.50;;
70049;SDS011;57391;51.306;22.680;2023-05-14T07:20:30;6.60;;;3.40;;
70049;SDS011;57391;51.306;22.680;2023-05-14T07:22:57;5.00;;;3.00;;
70049;SDS011;57391;51.306;22.680;2023-05-14T07:25:24;5.20;;;3.10;;
70049;SDS011;57391;51.306;22.680;2023-05-14T07:27:52;7.20;;;3.00;;
70049;SDS011;57391;51.306;22.680;2023-05-14T07:30:19;4.90;;;3.00;;
70049;SDS011;57391;51.306;22.680;2023-05-14T07:32:46;5.10;;;2.70;;
70049;SDS011;57391;51.306;22.680;2023-05-14T07:35:13;5.90;;;3.10;;
70049;SDS011;57391;51.306;22.680;2023-05-14T07:37:41;5.20;;;2.90;;
70049;SDS011;57391;51.306;22.680;2023-05-14T07:40:09;5.20;;;2.90;;
70049;SDS011;57391;51.306;22.680;2023-05-14T07:42:36;6.70;;;2.90;;
70049;SDS011;57391;51.306;22.680;2023-05-14T07:45:04;5.60;;;2.80;;
70049;SDS011;57391;51.306;22.680;2023-05-14T07:47:32;6.70;;;3.20;;
70049;SDS011;57391;51.306;22.680;2023-05-14T07:49:59;5.80;;;3.00;;
70049;SDS011;57391;51.306;22.680;2023-05-14T07:52:27;5.80;;;3.10;;
70049;SDS011;57391;51.306;22.680;2023-05-14T07:54:54;6.00;;;3.00;;
70049;SDS011;57391;51.306;22.680;2023-05-14T07:57:21;7.00;;;3.30;;
70049;SDS011;57391;51.306;22.680;2023-05-14T07:59:48;7.00;;;3.10;;
70049;SDS011;57391;51.306;22.680;2023-05-14T08:02:15;5.30;;;2.80;;
70049;SDS011;57391;51.306;22.680;2023-05-14T08:04:43;7.10;;;3.30;;
70049;SDS011;57391;51.306;22.680;2023-05-14T08:07:10;6.60;;;2.90;;
70049;SDS011;57391;51.306;22.680;2023-05-14T08:09:37;6.60;;;2.90;;
70049;SDS011;57391;51.306;22.680;2023-05-14T08:12:05;6.80;;;3.00;;
70049;SDS011;57391;51.306;22.680;2023-05-14T08:14:33;7.90;;;3.40;;
70049;SDS011;57391;51.306;22.680;2023-05-14T08:17:01;4.90;;;2.70;;
70049;SDS011;57391;51.306;22.680;2023-05-14T08:19:29;5.90;;;2.60;;
70049;SDS011;57391;51.306;22.680;2023-05-14T08:21:56;7.00;;;2.90;;
70049;SDS011;57391;51.306;22.680;2023-05-14T08:24:23;6.30;;;2.70;;
70049;SDS011;57391;51.306;22.680;2023-05-14T08:26:50;6.10;;;2.60;;
70049;SDS011;57391;51.306;22.680;2023-05-14T08:29:18;5.10;;;2.60;;
70049;SDS011;57391;51.306;22.680;2023-05-14T08:31:45;5.50;;;2.80;;
70049;SDS011;57391;51.306;22.680;2023-05-14T08:34:12;7.30;;;2.90;;
70049;SDS011;57391;51.306;22.680;2023-05-14T08:36:39;4.40;;;2.30;;
70049;SDS011;57391;51.306;22.680;2023-05-14T08:39:06;5.30;;;2.50;;
70049;SDS011;57391;51.306;22.680;2023-05-14T08:41:33;5.20;;;2.30;;
70049;SDS011;57391;51.306;22.680;2023-05-14T08:47:14;6.70;;;2.50;;
70049;SDS011;57391;51.306;22.680;2023-05-14T08:49:46;4.60;;;2.40;;
70049;SDS011;57391;51.306;22.680;2023-05-14T08:52:19;5.00;;;2.50;;
70049;SDS011;57391;51.306;22.680;2023-05-14T08:54:50;5.50;;;2.60;;
70049;SDS011;57391;51.306;22.680;2023-05-14T08:57:19;5.20;;;2.20;;
70049;SDS011;57391;51.306;22.680;2023-05-14T08:59:50;8.50;;;2.70;;
70049;SDS011;57391;51.306;22.680;2023-05-14T09:02:23;5.10;;;2.30;;
70049;SDS011;57391;51.306;22.680;2023-05-14T09:04:55;5.70;;;2.40;;
70049;SDS011;57391;51.306;22.680;2023-05-14T09:07:24;3.70;;;2.00;;
70049;SDS011;57391;51.306;22.680;2023-05-14T09:09:53;4.80;;;2.50;;
70049;SDS011;57391;51.306;22.680;2023-05-14T09:12:21;4.30;;;2.30;;
70049;SDS011;57391;51.306;22.680;2023-05-14T09:14:49;3.70;;;2.30;;
70049;SDS011;57391;51.306;22.680;2023-05-14T09:17:17;3.70;;;2.20;;
70049;SDS011;57391;51.306;22.680;2023-05-14T09:19:46;5.80;;;2.60;;
70049;SDS011;57391;51.306;22.680;2023-05-14T09:22:16;4.70;;;2.30;;
70049;SDS011;57391;51.306;22.680;2023-05-14T09:24:44;5.00;;;2.60;;
70049;SDS011;57391;51.306;22.680;2023-05-14T09:27:18;6.50;;;2.50;;
70049;SDS011;57391;51.306;22.680;2023-05-14T09:29:46;4.20;;;2.30;;
70049;SDS011;57391;51.306;22.680;2023-05-14T09:32:14;4.20;;;2.20;;
70049;SDS011;57391;51.306;22.680;2023-05-14T09:34:41;4.10;;;2.20;;
70049;SDS011;57391;51.306;22.680;2023-05-14T09:37:08;7.20;;;2.50;;
70049;SDS011;57391;51.306;22.680;2023-05-14T09:39:36;4.20;;;2.50;;
70049;SDS011;57391;51.306;22.680;2023-05-14T09:42:04;7.30;;;1.90;;
70049;SDS011;57391;51.306;22.680;2023-05-14T09:44:32;4.70;;;2.20;;
70049;SDS011;57391;51.306;22.680;2023-05-14T09:47:02;3.80;;;2.00;;
70049;SDS011;57391;51.306;22.680;2023-05-14T09:49:30;4.90;;;2.30;;
70049;SDS011;57391;51.306;22.680;2023-05-14T09:51:57;3.70;;;2.10;;
70049;SDS011;57391;51.306;22.680;2023-05-14T09:54:25;5.50;;;2.50;;
70049;SDS011;57391;51.306;22.680;2023-05-14T09:56:53;6.00;;;2.40;;
70049;SDS011;57391;51.306;22.680;2023-05-14T09:59:20;5.00;;;2.30;;
70049;SDS011;57391;51.306;22.680;2023-05-14T10:01:48;4.70;;;2.40;;
70049;SDS011;57391;51.306;22.680;2023-05-14T10:04:16;4.60;;;2.10;;
70049;SDS011;57391;51.306;22.680;2023-05-14T10:06:47;6.80;;;2.40;;
70049;SDS011;57391;51.306;22.680;2023-05-14T10:09:19;4.30;;;2.40;;
70049;SDS011;57391;51.306;22.680;2023-05-14T10:11:52;4.40;;;2.00;;
70049;SDS011;57391;51.306;22.680;2023-05-14T10:14:34;4.40;;;2.10;;
70049;SDS011;57391;51.306;22.680;2023-05-14T10:17:08;3.70;;;2.00;;
70049;SDS011;57391;51.306;22.680;2023-05-14T10:19:51;6.60;;;2.20;;
70049;SDS011;57391;51.306;22.680;2023-05-14T10:22:23;6.20;;;2.30;;
70049;SDS011;57391;51.306;22.680;2023-05-14T10:24:56;5.40;;;2.40;;
70049;SDS011;57391;51.306;22.680;2023-05-14T10:27:24;5.20;;;2.70;;
70049;SDS011;57391;51.306;22.680;2023-05-14T10:29:54;5.20;;;2.70;;
70049;SDS011;57391;51.306;22.680;2023-05-14T10:32:23;6.80;;;2.60;;
70049;SDS011;57391;51.306;22.680;2023-05-14T10:34:52;4.90;;;2.70;;
70049;SDS011;57391;51.306;22.680;2023-05-14T10:37:25;5.00;;;2.60;;
70049;SDS011;57391;51.306;22.680;2023-05-14T10:42:37;7.30;;;2.80;;
70049;SDS011;57391;51.306;22.680;2023-05-14T10:45:11;7.00;;;2.70;;
70049;SDS011;57391;51.306;22.680;2023-05-14T10:47:46;7.90;;;2.70;;
70049;SDS011;57391;51.306;22.680;2023-05-14T10:50:14;4.40;;;2.40;;
70049;SDS011;57391;51.306;22.680;2023-05-14T10:52:42;5.60;;;2.70;;
70049;SDS011;57391;51.306;22.680;2023-05-14T10:55:13;7.00;;;2.70;;
70049;SDS011;57391;51.306;22.680;2023-05-14T10:57:44;4.60;;;2.20;;
70049;SDS011;57391;51.306;22.680;2023-05-14T11:00:13;5.10;;;2.40;;
70049;SDS011;57391;51.306;22.680;2023-05-14T11:02:42;4.60;;;2.40;;
70049;SDS011;57391;51.306;22.680;2023-05-14T11:05:15;6.20;;;2.40;;
70049;SDS011;57391;51.306;22.680;2023-05-14T11:07:47;8.50;;;2.70;;
70049;SDS011;57391;51.306;22.680;2023-05-14T11:10:19;4.20;;;2.40;;
70049;SDS011;57391;51.306;22.680;2023-05-14T11:12:51;5.10;;;2.50;;
70049;SDS011;57391;51.306;22.680;2023-05-14T11:15:20;6.50;;;2.60;;
70049;SDS011;57391;51.306;22.680;2023-05-14T11:17:51;7.30;;;2.60;;
70049;SDS011;57391;51.306;22.680;2023-05-14T11:20:20;6.40;;;2.70;;
70049;SDS011;57391;51.306;22.680;2023-05-14T11:22:48;5.60;;;2.70;;
70049;SDS011;57391;51.306;22.680;2023-05-14T11:25:17;5.80;;;2.70;;
70049;SDS011;57391;51.306;22.680;2023-05-14T11:27:45;7.20;;;2.70;;
70049;SDS011;57391;51.306;22.680;2023-05-14T11:30:18;7.60;;;2.90;;
70049;SDS011;57391;51.306;22.680;2023-05-14T11:32:47;5.60;;;2.50;;
70049;SDS011;57391;51.306;22.680;2023-05-14T11:35:15;5.60;;;2.40;;
70049;SDS011;57391;51.306;22.680;2023-05-14T11:37:49;5.30;;;2.30;;
70049;SDS011;57391;51.306;22.680;2023-05-14T11:40:18;6.00;;;2.30;;
70049;SDS011;57391;51.306;22.680;2023-05-14T11:42:45;5.30;;;2.30;;
70049;SDS011;57391;51.306;22.680;2023-05-14T11:45:22;4.10;;;2.30;;
70049;SDS011;57391;51.306;22.680;2023-05-14T11:47:52;3.80;;;2.20;;
70049;SDS011;57391;51.306;22.680;2023-05-14T11:50:21;6.10;;;2.40;;
70049;SDS011;57391;51.306;22.680;2023-05-14T11:52:48;4.60;;;2.40;;
70049;SDS011;57391;51.306;22.680;2023-05-14T11:55:16;5.90;;;2.50;;
70049;SDS011;57391;51.306;22.680;2023-05-14T11:57:44;6.70;;;2.40;;
70049;SDS011;57391;51.306;22.680;2023-05-14T12:00:12;6.50;;;2.40;;
70049;SDS011;57391;51.306;22.680;2023-05-14T12:02:40;4.70;;;2.00;;
70049;SDS011;57391;51.306;22.680;2023-05-14T12:05:07;6.50;;;2.50;;
70049;SDS011;57391;51.306;22.680;2023-05-14T12:07:38;3.90;;;1.90;;
70049;SDS011;57391;51.306;22.680;2023-05-14T12:10:10;5.80;;;2.40;;
70049;SDS011;57391;51.306;22.680;2023-05-14T12:12:52;6.80;;;2.40;;
70049;SDS011;57391;51.306;22.680;2023-05-14T12:15:19;5.00;;;2.80;;
70049;SDS011;57391;51.306;22.680;2023-05-14T12:17:50;4.30;;;2.00;;
70049;SDS011;57391;51.306;22.680;2023-05-14T12:20:18;4.20;;;2.30;;
70049;SDS011;57391;51.306;22.680;2023-05-14T12:22:45;4.60;;;2.30;;
70049;SDS011;57391;51.306;22.680;2023-05-14T12:25:13;4.40;;;2.20;;
70049;SDS011;57391;51.306;22.680;2023-05-14T12:27:43;3.50;;;1.90;;
70049;SDS011;57391;51.306;22.680;2023-05-14T12:30:11;6.30;;;2.70;;
70049;SDS011;57391;51.306;22.680;2023-05-14T12:32:40;5.30;;;2.20;;
70049;SDS011;57391;51.306;22.680;2023-05-14T12:35:08;7.30;;;2.50;;
70049;SDS011;57391;51.306;22.680;2023-05-14T12:37:35;5.60;;;2.70;;
70049;SDS011;57391;51.306;22.680;2023-05-14T12:40:05;3.90;;;2.20;;
70049;SDS011;57391;51.306;22.680;2023-05-14T12:42:36;6.80;;;2.60;;
70049;SDS011;57391;51.306;22.680;2023-05-14T12:45:04;3.90;;;2.40;;
70049;SDS011;57391;51.306;22.680;2023-05-14T12:47:34;6.50;;;2.40;;
70049;SDS011;57391;51.306;22.680;2023-05-14T12:50:02;4.50;;;2.10;;
70049;SDS011;57391;51.306;22.680;2023-05-14T12:52:30;5.70;;;2.40;;
70049;SDS011;57391;51.306;22.680;2023-05-14T12:54:57;4.70;;;2.30;;
70049;SDS011;57391;51.306;22.680;2023-05-14T12:57:25;4.20;;;2.40;;
70049;SDS011;57391;51.306;22.680;2023-05-14T12:59:54;4.70;;;2.00;;
70049;SDS011;57391;51.306;22.680;2023-05-14T13:02:22;3.60;;;1.80;;
70049;SDS011;57391;51.306;22.680;2023-05-14T13:04:49;5.10;;;2.30;;
70049;SDS011;57391;51.306;22.680;2023-05-14T13:07:16;3.10;;;1.90;;
70049;SDS011;57391;51.306;22.680;2023-05-14T13:09:44;4.50;;;2.40;;
70049;SDS011;57391;51.306;22.680;2023-05-14T13:12:11;5.10;;;2.00;;
70049;SDS011;57391;51.306;22.680;2023-05-14T13:14:38;4.70;;;2.50;;
70049;SDS011;57391;51.306;22.680;2023-05-14T13:17:06;4.50;;;2.30;;
70049;SDS011;57391;51.306;22.680;2023-05-14T13:19:33;6.40;;;2.40;;
70049;SDS011;57391;51.306;22.680;2023-05-14T13:22:00;4.50;;;2.50;;
70049;SDS011;57391;51.306;22.680;2023-05-14T13:24:28;3.50;;;2.00;;
70049;SDS011;57391;51.306;22.680;2023-05-14T13:26:55;5.60;;;2.10;;
70049;SDS011;57391;51.306;22.680;2023-05-14T13:29:22;4.40;;;2.00;;
70049;SDS011;57391;51.306;22.680;2023-05-14T13:31:50;3.60;;;2.00;;
70049;SDS011;57391;51.306;22.680;2023-05-14T13:34:18;5.00;;;2.10;;
70049;SDS011;57391;51.306;22.680;2023-05-14T13:36:45;4.90;;;2.10;;
70049;SDS011;57391;51.306;22.680;2023-05-14T13:39:13;4.60;;;2.00;;
70049;SDS011;57391;51.306;22.680;2023-05-14T13:41:40;4.50;;;2.00;;
70049;SDS011;57391;51.306;22.680;2023-05-14T13:44:08;5.30;;;2.10;;
70049;SDS011;57391;51.306;22.680;2023-05-14T13:46:35;3.70;;;2.00;;
70049;SDS011;57391;51.306;22.680;2023-05-14T13:49:02;4.70;;;1.90;;
70049;SDS011;57391;51.306;22.680;2023-05-14T13:51:29;3.10;;;1.80;;
70049;SDS011;57391;51.306;22.680;2023-05-14T13:53:57;4.50;;;2.30;;
70049;SDS011;57391;51.306;22.680;2023-05-14T13:56:24;4.30;;;2.40;;
70049;SDS011;57391;51.306;22.680;2023-05-14T13:58:51;3.60;;;1.90;;
70049;SDS011;57391;51.306;22.680;2023-05-14T14:01:19;5.00;;;2.10;;
70049;SDS011;57391;51.306;22.680;2023-05-14T14:03:46;3.60;;;2.30;;
70049;SDS011;57391;51.306;22.680;2023-05-14T14:06:13;3.70;;;2.10;;
70049;SDS011;57391;51.306;22.680;2023-05-14T14:08:40;4.20;;;2.20;;
70049;SDS011;57391;51.306;22.680;2023-05-14T14:11:07;4.20;;;2.40;;
70049;SDS011;57391;51.306;22.680;2023-05-14T14:13:35;5.00;;;2.30;;
70049;SDS011;57391;51.306;22.680;2023-05-14T14:16:03;3.80;;;1.90;;
70049;SDS011;57391;51.306;22.680;2023-05-14T14:18:32;3.50;;;2.00;;
70049;SDS011;57391;51.306;22.680;2023-05-14T14:20:59;4.30;;;1.80;;
70049;SDS011;57391;51.306;22.680;2023-05-14T14:23:27;3.50;;;2.10;;
70049;SDS011;57391;51.306;22.680;2023-05-14T14:25:54;3.90;;;2.10;;
70049;SDS011;57391;51.306;22.680;2023-05-14T14:28:21;3.80;;;2.20;;
70049;SDS011;57391;51.306;22.680;2023-05-14T14:30:49;4.30;;;2.00;;
70049;SDS011;57391;51.306;22.680;2023-05-14T14:33:16;4.10;;;2.10;;
70049;SDS011;57391;51.306;22.680;2023-05-14T14:35:43;3.40;;;2.10;;
70049;SDS011;57391;51.306;22.680;2023-05-14T14:38:10;5.10;;;2.10;;
70049;SDS011;57391;51.306;22.680;2023-05-14T14:40:38;4.00;;;1.90;;